Mapaville, Missouri
Current Conditions -  °F | °C
As of 4:53 PM on Friday 31 Oct 2014 (Local Time) from KCPS Reporting Station
Few Clouds Few Clouds  
Wind Chill: 39°   Ceiling: Unl
Heat Index: 46°   Visibility: 10mi
Dew Point: 22°   Wind: 18mph
Humidity: 39%   Direction: 350°N
Pressure: 30.31"   Gusts: 31mph
Location:  38.25°N, 90.48°W
Report Text: KCPS 312153Z 35016G27KT 10SM FEW060 08/M06 A3031 RMK AO2 PK WND 34031/2118 SLP264 T00781056
Loading
Personal Weather Stations






























Interactive Weather Map
Tropical Storm Tracking
New forecast layout! Learn more

10-Day Weather Forecast

Advertisements
Track Severe Weather on mobile